Langdon, ND

8:22 PM CST on December 10, 2017 (GMT -0600)
Langdon

Weather History for KD55 - December, 2013

Change the Weather History Date:

Sunday, December 8, 2013

  Actual Average (KDVL) Record (KDVL)
Temperature  
Mean Temperature -10 °F -  
Max Temperature 0 °F 22 °F 48 °F (1990)
Min Temperature -20 °F 8 °F -24 °F (1960)
Degree Days  
Heating Degree Days 75    
Moisture  
Dew Point -17 °F    
Average Humidity 74    
Maximum Humidity 84    
Minimum Humidity 70    
Precipitation  
Precipitation 0.00 in - - ()
Sea Level Pressure  
Sea Level Pressure 30.03 in    
Wind  
Wind Speed 12 mph (SW)    
Max Wind Speed 16 mph    
Max Gust Speed -    
Visibility 8 miles    
Events Snow    
Averages and records for this station are not official NWS values.
T = Trace of Precipitation, MM = Missing Value Source: NWS Daily Summary

Daily Weather History Graph

Daily Weather History Graph

Search for Another Location

Airport or City:

Trip Planner

Search our weather history database for the weather conditions in past years. The results will help you decide how hot, cold, wet, or windy it might be!

Date:

Astronomy

Dec. 08, 2013 Rise Set
Actual Time 8:13 AM CST 4:37 PM CST
Civil Twilight 7:36 AM CST 5:14 PM CST
Nautical Twilight 6:56 AM CST 5:54 PM CST
Astronomical Twilight 6:18 AM CST 6:32 PM CST
Moon 12:11 PM CST (12/8) 11:55 PM CST (12/8)
Length of Visible Light 9h 37m
Length of Day
8h 23m
Waxing Crescent, 40% of the Moon is Illuminated
Dec 8
Waxing Crescent
Dec 9
First Quarter
Dec 17
Full
Dec 25
Last Quarter
Jan 1
New

Hourly Weather History & Observations

Time (CST) Temp. Windchill Dew Point Humidity Pressure Visibility Wind Dir Wind Speed Gust Speed Precip Events Conditions
12:15 AM -16.6 °F -40.6 °F -22.0 °F 76% 30.25 in 10.0 mi WSW 15.0 mph - N/A   Clear
12:35 AM -16.6 °F -38.9 °F -22.0 °F 76% 30.24 in 10.0 mi WSW 12.7 mph - N/A   Clear
12:55 AM -16.6 °F -40.6 °F -22.0 °F 76% 30.24 in 10.0 mi SW 15.0 mph - N/A   Clear
1:15 AM -16.6 °F -38.9 °F -22.0 °F 76% 30.23 in 10.0 mi WSW 12.7 mph - N/A   Clear
1:35 AM -16.6 °F -41.4 °F -23.8 °F 70% 30.22 in 10.0 mi SW 16.1 mph - N/A   Clear
1:55 AM -18.4 °F -41.2 °F -23.8 °F 76% 30.21 in 10.0 mi WSW 12.7 mph - N/A   Clear
2:15 AM -18.4 °F -37.9 °F -25.6 °F 70% 30.20 in 10.0 mi SW 9.2 mph - N/A   Clear
2:35 AM -20.2 °F -40.1 °F -25.6 °F 76% 30.20 in 10.0 mi SW 9.2 mph - N/A   Clear
2:55 AM -20.2 °F -41.3 °F -25.6 °F 76% 30.20 in 10.0 mi SW 10.4 mph - N/A   Clear
3:15 AM -20.2 °F -42.4 °F -25.6 °F 76% 30.19 in 10.0 mi SW 11.5 mph - N/A   Clear
3:35 AM -20.2 °F -42.4 °F -25.6 °F 76% 30.18 in 10.0 mi SW 11.5 mph - N/A   Clear
3:55 AM -18.4 °F -41.2 °F -25.6 °F 70% 30.17 in 10.0 mi SW 12.7 mph - N/A   Clear
4:15 AM -18.4 °F -41.2 °F -25.6 °F 70% 30.15 in 10.0 mi SW 12.7 mph - N/A   Clear
4:35 AM -20.2 °F -42.4 °F -25.6 °F 76% 30.15 in 10.0 mi SSW 11.5 mph - N/A   Clear
4:55 AM -20.2 °F -42.4 °F -25.6 °F 76% 30.15 in 10.0 mi SSW 11.5 mph - N/A   Clear
5:15 AM -18.4 °F -40.2 °F -25.6 °F 70% 30.14 in 10.0 mi SSW 11.5 mph - N/A   Clear
5:35 AM -18.4 °F -42.1 °F -25.6 °F 70% 30.13 in 10.0 mi SSW 13.8 mph - N/A   Clear
5:55 AM -18.4 °F -41.2 °F -25.6 °F 70% 30.12 in 10.0 mi SSW 12.7 mph - N/A   Clear
6:15 AM -18.4 °F -40.2 °F -25.6 °F 70% 30.11 in 10.0 mi SSW 11.5 mph - N/A   Clear
6:35 AM -18.4 °F -41.2 °F -25.6 °F 70% 30.10 in 10.0 mi SSW 12.7 mph - N/A   Clear
6:55 AM -18.4 °F -42.1 °F -23.8 °F 76% 30.10 in 10.0 mi SSW 13.8 mph - N/A   Scattered Clouds
7:15 AM -18.4 °F -39.1 °F -23.8 °F 76% 30.09 in 10.0 mi SW 10.4 mph - N/A   Partly Cloudy
7:35 AM -16.6 °F -35.7 °F -23.8 °F 70% 30.09 in 10.0 mi SSW 9.2 mph - N/A   Scattered Clouds
7:55 AM -16.6 °F -34.4 °F -22.0 °F 76% 30.08 in 10.0 mi SSW 8.1 mph - N/A   Mostly Cloudy
8:15 AM -16.6 °F -35.7 °F -22.0 °F 76% 30.08 in 10.0 mi SSW 9.2 mph - N/A   Scattered Clouds
8:35 AM -14.8 °F -34.6 °F -20.2 °F 77% 30.07 in 10.0 mi SSW 10.4 mph - N/A   Scattered Clouds
8:55 AM -13.0 °F -33.4 °F -18.4 °F 77% 30.07 in 10.0 mi SSW 11.5 mph - N/A   Scattered Clouds
9:15 AM -11.2 °F -32.9 °F -16.6 °F 77% 30.06 in 10.0 mi SSW 13.8 mph - N/A   Scattered Clouds
9:35 AM -9.4 °F -31.4 °F -14.8 °F 77% 30.06 in 5.0 mi SSW 15.0 mph - N/A   Haze
9:55 AM -7.6 °F -29.1 °F -13.0 °F 77% 30.06 in 2.5 mi SW 15.0 mph - N/A   Haze
10:35 AM -7.6 °F -29.1 °F -13.0 °F 77% 30.05 in 7.0 mi SW 15.0 mph - N/A   Mostly Cloudy
10:55 AM -5.8 °F -26.8 °F -13.0 °F 71% 30.04 in 2.5 mi SW 15.0 mph - N/A   Haze
11:15 AM -5.8 °F -27.5 °F - N/A% 30.03 in 2.5 mi SSW 16.1 mph - N/A   Overcast
11:35 AM -4.0 °F -23.0 °F -11.2 °F 71% 30.03 in 1.5 mi SSW 12.7 mph - N/A Snow Light Snow
11:55 AM -4.0 °F -23.7 °F -11.2 °F 71% 30.02 in 1.8 mi SSW 13.8 mph - N/A   Haze
12:15 PM -4.0 °F -23.7 °F -11.2 °F 71% 30.01 in 2.0 mi SSW 13.8 mph - N/A   Haze
12:35 PM -4.0 °F -23.7 °F -11.2 °F 71% 30.00 in 1.8 mi SSW 13.8 mph - N/A   Haze
12:55 PM -4.0 °F -22.1 °F -9.4 °F 78% 29.99 in 0.8 mi SSW 11.5 mph - N/A Snow Light Snow
1:15 PM -2.2 °F -18.9 °F -9.4 °F 71% 29.98 in 1.0 mi SW 10.4 mph - N/A   Haze
1:35 PM -2.2 °F -18.9 °F -9.4 °F 71% 29.97 in 2.5 mi SW 10.4 mph - N/A   Haze
1:55 PM -2.2 °F -21.5 °F -9.4 °F 71% 29.96 in 1.5 mi SW 13.8 mph - N/A Snow Light Snow
2:15 PM -2.2 °F -18.9 °F -7.6 °F 78% 29.96 in 1.5 mi WSW 10.4 mph - N/A Snow Light Snow
2:35 PM -2.2 °F -19.9 °F -7.6 °F 78% 29.94 in 1.2 mi SW 11.5 mph - N/A   Haze
2:55 PM -0.4 °F -16.7 °F -7.6 °F 72% 29.93 in 3.0 mi SW 10.4 mph - N/A   Haze
3:15 PM -2.2 °F -18.9 °F -7.6 °F 78% 29.93 in 3.0 mi SW 10.4 mph - N/A   Haze
3:35 PM -2.2 °F -18.9 °F -9.4 °F 71% 29.94 in 7.0 mi SW 10.4 mph - N/A   Overcast
3:55 PM -2.2 °F -18.9 °F -7.6 °F 78% 29.93 in 5.0 mi SW 10.4 mph - N/A   Haze
4:15 PM -2.2 °F -19.9 °F -9.4 °F 71% 29.93 in 3.0 mi SW 11.5 mph - N/A   Haze
4:35 PM -2.2 °F -20.7 °F -7.6 °F 78% 29.93 in 5.0 mi SW 12.7 mph - N/A   Haze
4:55 PM -2.2 °F -18.9 °F -7.6 °F 78% 29.93 in 2.5 mi SSW 10.4 mph - N/A   Haze
5:15 PM -4.0 °F -20.2 °F -9.4 °F 78% 29.93 in 10.0 mi SW 9.2 mph - N/A   Overcast
5:35 PM -5.8 °F -22.4 °F -11.2 °F 77% 29.92 in 10.0 mi SSW 9.2 mph - N/A   Scattered Clouds
5:55 PM -7.6 °F -25.7 °F -13.0 °F 77% 29.92 in 10.0 mi SW 10.4 mph - N/A   Partly Cloudy
6:15 PM -9.4 °F -26.8 °F -16.6 °F 71% 29.92 in 10.0 mi SW 9.2 mph - N/A   Clear
6:35 PM -9.4 °F -27.9 °F -16.6 °F 71% 29.92 in 10.0 mi SW 10.4 mph - N/A   Clear
6:55 PM -9.4 °F -30.6 °F -13.0 °F 84% 29.92 in 10.0 mi WSW 13.8 mph - N/A   Clear
7:15 PM -7.6 °F -26.6 °F -13.0 °F 77% 29.92 in 10.0 mi WSW 11.5 mph - N/A   Clear
7:35 PM -9.4 °F -26.8 °F -14.8 °F 77% 29.91 in 10.0 mi WSW 9.2 mph - N/A   Clear
7:55 PM -9.4 °F -27.9 °F -14.8 °F 77% 29.91 in 10.0 mi WSW 10.4 mph - N/A   Clear
8:15 PM -9.4 °F -27.9 °F -16.6 °F 71% 29.91 in 10.0 mi WSW 10.4 mph - N/A   Clear
8:35 PM -11.2 °F -29.0 °F -16.6 °F 77% 29.90 in 10.0 mi WSW 9.2 mph - N/A   Clear
8:55 PM -11.2 °F -31.1 °F -16.6 °F 77% 29.90 in 10.0 mi West 11.5 mph - N/A   Clear
9:15 PM -9.4 °F -28.9 °F -16.6 °F 71% 29.89 in 10.0 mi West 11.5 mph - N/A   Clear
9:35 PM -11.2 °F -32.1 °F -18.4 °F 70% 29.90 in 10.0 mi West 12.7 mph - N/A   Clear
9:55 PM -11.2 °F -32.1 °F -18.4 °F 70% 29.90 in 10.0 mi West 12.7 mph - N/A   Clear
10:15 PM -13.0 °F -33.4 °F -18.4 °F 77% 29.90 in 10.0 mi West 11.5 mph - N/A   Clear
10:35 PM -13.0 °F -31.3 °F -20.2 °F 70% 29.90 in 10.0 mi West 9.2 mph - N/A   Clear
10:55 PM -13.0 °F -32.4 °F -18.4 °F 77% 29.90 in 10.0 mi WNW 10.4 mph - N/A   Clear
11:15 PM -11.2 °F -32.9 °F -18.4 °F 70% 29.89 in 10.0 mi WNW 13.8 mph - N/A   Clear
11:35 PM -11.2 °F -32.9 °F -16.6 °F 77% 29.89 in 10.0 mi WNW 13.8 mph - N/A   Clear
11:55 PM -11.2 °F -33.7 °F -16.6 °F 77% 29.89 in 10.0 mi WNW 15.0 mph - N/A   Clear